createdAt,value
2019-03-01T00:00:58.103Z,8.70
2019-03-01T00:03:27.226Z,8.70
2019-03-01T00:06:18.511Z,8.70
2019-03-01T00:09:31.899Z,8.70
2019-03-01T00:12:42.265Z,8.70
2019-03-01T00:16:01.078Z,8.70
2019-03-01T00:18:45.725Z,8.70
2019-03-01T00:21:46.709Z,8.70
2019-03-01T00:24:40.089Z,8.70
2019-03-01T00:27:44.550Z,8.70
2019-03-01T00:31:00.359Z,8.70
2019-03-01T00:34:14.830Z,8.60
2019-03-01T00:37:22.177Z,8.70
2019-03-01T00:40:22.457Z,8.60
2019-03-01T00:43:43.318Z,8.60
2019-03-01T00:46:12.372Z,8.60
2019-03-01T00:48:41.461Z,8.60
2019-03-01T00:51:10.549Z,8.60
2019-03-01T00:53:39.625Z,8.60
2019-03-01T00:56:08.637Z,8.70
2019-03-01T00:58:37.711Z,8.60
2019-03-01T01:01:06.805Z,8.70
2019-03-01T01:03:35.907Z,8.60
2019-03-01T01:06:05.081Z,8.60
2019-03-01T01:08:34.173Z,8.60
2019-03-01T01:11:03.243Z,8.60
2019-03-01T01:13:32.371Z,8.60
2019-03-01T01:16:01.442Z,8.60
2019-03-01T01:18:30.536Z,8.60
2019-03-01T01:20:59.598Z,8.60
2019-03-01T01:23:28.714Z,8.60
2019-03-01T01:25:57.814Z,8.70
2019-03-01T01:28:26.980Z,8.70
2019-03-01T01:30:56.072Z,8.80
2019-03-01T01:33:25.178Z,8.80
2019-03-01T01:35:54.192Z,8.80
2019-03-01T01:38:23.298Z,8.80
2019-03-01T01:40:52.367Z,8.70
2019-03-01T01:43:21.465Z,8.60
2019-03-01T01:45:51.769Z,8.60
2019-03-01T01:48:20.898Z,8.60
2019-03-01T01:50:49.995Z,8.60
2019-03-01T01:53:19.076Z,8.70
2019-03-01T01:55:48.164Z,8.60
2019-03-01T01:58:17.251Z,8.60
2019-03-01T02:00:46.377Z,8.60
2019-03-01T02:03:15.447Z,8.50
2019-03-01T02:05:44.532Z,8.50
2019-03-01T02:08:13.617Z,8.50
2019-03-01T02:10:42.692Z,8.50
2019-03-01T02:13:11.796Z,8.50
2019-03-01T02:15:40.868Z,8.50
2019-03-01T02:18:09.981Z,8.50
2019-03-01T02:20:39.071Z,8.60
2019-03-01T02:23:08.240Z,8.60
2019-03-01T02:25:37.339Z,8.60
2019-03-01T02:28:06.436Z,8.50
2019-03-01T02:30:35.567Z,8.60
2019-03-01T02:33:04.666Z,8.60
2019-03-01T02:35:33.735Z,8.50
2019-03-01T02:38:02.831Z,8.50
2019-03-01T02:40:35.408Z,8.50
2019-03-01T02:43:04.622Z,8.60
2019-03-01T02:45:33.737Z,8.50
2019-03-01T02:48:02.763Z,8.50
2019-03-01T02:50:31.861Z,8.50
2019-03-01T02:53:00.872Z,8.50
2019-03-01T02:55:29.955Z,8.40
2019-03-01T02:57:59.046Z,8.50
2019-03-01T03:00:28.660Z,8.40
2019-03-01T03:02:57.754Z,8.40
2019-03-01T03:05:26.907Z,8.50
2019-03-01T03:07:57.872Z,8.50
2019-03-01T03:10:27.036Z,8.50
2019-03-01T03:12:58.710Z,8.50
2019-03-01T03:15:33.047Z,8.50
2019-03-01T03:18:02.113Z,8.50
2019-03-01T03:20:31.203Z,8.50
2019-03-01T03:23:00.381Z,8.50
2019-03-01T03:25:29.446Z,8.50
2019-03-01T03:27:58.627Z,8.50
2019-03-01T03:30:27.688Z,8.50
2019-03-01T03:32:56.773Z,8.50
2019-03-01T03:35:25.786Z,8.50
2019-03-01T03:37:54.859Z,8.50
2019-03-01T03:40:23.951Z,8.50
2019-03-01T03:42:53.017Z,8.60
2019-03-01T03:45:22.083Z,8.60
2019-03-01T03:47:51.169Z,8.50
2019-03-01T03:50:20.260Z,8.50
2019-03-01T03:52:49.320Z,8.50
2019-03-01T03:55:18.560Z,8.50
2019-03-01T03:57:47.799Z,8.50
2019-03-01T04:00:18.333Z,8.50
2019-03-01T04:02:47.439Z,8.40
2019-03-01T04:05:16.562Z,8.50
2019-03-01T04:07:46.315Z,8.40
2019-03-01T04:10:15.615Z,8.40
2019-03-01T04:12:44.760Z,8.40
2019-03-01T04:15:14.088Z,8.30
2019-03-01T04:17:43.260Z,8.40
2019-03-01T04:20:14.210Z,8.30
2019-03-01T04:22:43.287Z,8.40
2019-03-01T04:25:12.482Z,8.40
2019-03-01T04:27:41.545Z,8.40
2019-03-01T04:30:16.024Z,8.40
2019-03-01T04:32:45.156Z,8.30
2019-03-01T04:35:14.857Z,8.30
2019-03-01T04:37:43.924Z,8.30
2019-03-01T04:40:13.163Z,8.30
2019-03-01T04:42:42.330Z,8.30
2019-03-01T04:45:11.983Z,8.30
2019-03-01T04:47:41.059Z,8.30
2019-03-01T04:50:10.428Z,8.30
2019-03-01T04:52:39.853Z,8.30
2019-03-01T04:55:17.069Z,8.30
2019-03-01T04:57:46.175Z,8.40
2019-03-01T05:00:20.019Z,8.40
2019-03-01T05:02:49.170Z,8.30
2019-03-01T05:05:18.409Z,8.30
2019-03-01T05:07:47.693Z,8.30
2019-03-01T05:10:17.271Z,8.30
2019-03-01T05:12:46.369Z,8.30
2019-03-01T05:15:20.053Z,8.30
2019-03-01T05:17:49.053Z,8.30
2019-03-01T05:20:18.138Z,8.30
2019-03-01T05:22:48.111Z,8.20
2019-03-01T05:25:17.179Z,8.20
2019-03-01T05:27:46.272Z,8.20
2019-03-01T05:30:15.523Z,8.20
2019-03-01T05:32:44.642Z,8.20
2019-03-01T05:35:13.999Z,8.20
2019-03-01T05:37:43.075Z,8.10
2019-03-01T05:40:12.606Z,8.10
2019-03-01T05:42:41.686Z,8.10
2019-03-01T05:45:16.259Z,8.10
2019-03-01T05:47:45.376Z,8.10
2019-03-01T05:50:14.563Z,8.00
2019-03-01T05:52:43.654Z,7.90
2019-03-01T05:55:12.856Z,7.90
2019-03-01T05:58:17.227Z,7.90
2019-03-01T06:00:46.300Z,7.80
2019-03-01T06:03:29.823Z,7.80
2019-03-01T06:05:58.964Z,7.80
2019-03-01T06:09:04.867Z,7.80
2019-03-01T06:11:40.013Z,7.70
2019-03-01T06:14:45.022Z,7.70
2019-03-01T06:18:13.387Z,7.70
2019-03-01T06:20:50.258Z,7.70
2019-03-01T06:23:30.887Z,7.70
2019-03-01T06:26:49.671Z,7.70
2019-03-01T06:29:34.022Z,7.70
2019-03-01T06:32:37.214Z,7.70
2019-03-01T06:35:29.399Z,7.70
2019-03-01T06:39:21.292Z,7.60
2019-03-01T06:41:59.700Z,7.70
2019-03-01T06:45:19.226Z,7.70
2019-03-01T06:47:49.345Z,7.60
2019-03-01T06:50:29.542Z,7.70
2019-03-01T06:52:58.645Z,7.60
2019-03-01T06:55:43.205Z,7.60
2019-03-01T06:58:18.249Z,7.70
2019-03-01T07:00:50.390Z,7.60
2019-03-01T07:03:19.742Z,7.60
2019-03-01T07:05:48.828Z,7.70
2019-03-01T07:08:17.913Z,7.70
2019-03-01T07:10:46.997Z,7.60
2019-03-01T07:13:16.104Z,7.60
2019-03-01T07:15:45.158Z,7.70
2019-03-01T07:18:14.274Z,7.70
2019-03-01T07:20:43.363Z,7.70
2019-03-01T07:23:12.486Z,7.80
2019-03-01T07:25:42.478Z,7.80
2019-03-01T07:28:11.794Z,7.80
2019-03-01T07:30:40.867Z,7.80
2019-03-01T07:33:09.960Z,7.90
2019-03-01T07:35:39.097Z,7.90
2019-03-01T07:38:08.289Z,7.90
2019-03-01T07:40:37.458Z,7.90
2019-03-01T07:43:07.746Z,7.90
2019-03-01T07:45:36.923Z,7.90
2019-03-01T07:48:06.001Z,7.90
2019-03-01T07:50:35.099Z,7.90
2019-03-01T07:53:04.849Z,8.00
2019-03-01T07:55:33.985Z,8.00
2019-03-01T07:58:03.068Z,8.00
2019-03-01T08:00:32.178Z,8.00
2019-03-01T08:03:01.298Z,8.10
2019-03-01T08:05:30.362Z,8.10
2019-03-01T08:08:02.586Z,8.10
2019-03-01T08:10:30.275Z,8.20
2019-03-01T08:12:59.382Z,8.20
2019-03-01T08:15:28.462Z,8.20
2019-03-01T08:17:57.522Z,8.20
2019-03-01T08:20:26.645Z,8.30
2019-03-01T08:22:56.801Z,8.20
2019-03-01T08:25:28.395Z,8.20
2019-03-01T08:27:57.410Z,8.20
2019-03-01T08:30:26.492Z,8.20
2019-03-01T08:32:55.552Z,8.20
2019-03-01T08:35:25.309Z,8.20
2019-03-01T08:37:55.470Z,8.20
2019-03-01T08:40:24.580Z,8.30
2019-03-01T08:42:53.654Z,8.30
2019-03-01T08:45:22.793Z,8.40
2019-03-01T08:47:51.875Z,8.40
2019-03-01T08:50:20.974Z,8.50
2019-03-01T08:52:50.103Z,8.50
2019-03-01T08:55:19.369Z,8.60
2019-03-01T08:57:48.441Z,8.60
2019-03-01T09:00:23.043Z,8.60
2019-03-01T09:02:59.052Z,8.60
2019-03-01T09:05:28.665Z,8.60
2019-03-01T09:07:57.903Z,8.70
2019-03-01T09:10:29.233Z,8.70
2019-03-01T09:12:57.798Z,8.80
2019-03-01T09:15:26.920Z,8.80
2019-03-01T09:17:55.988Z,8.80
2019-03-01T09:20:25.038Z,8.80
2019-03-01T09:22:54.208Z,8.80
2019-03-01T09:25:23.326Z,8.70
2019-03-01T09:27:52.377Z,8.70
2019-03-01T09:30:23.900Z,8.80
2019-03-01T09:32:52.985Z,8.70
2019-03-01T09:35:39.709Z,8.80
2019-03-01T09:38:09.035Z,8.70
2019-03-01T09:40:38.149Z,8.80
2019-03-01T09:43:07.222Z,8.70
2019-03-01T09:45:36.835Z,8.70
2019-03-01T09:48:08.706Z,8.70
2019-03-01T09:50:38.290Z,8.70
2019-03-01T09:53:07.485Z,8.70
2019-03-01T09:55:37.686Z,8.70
2019-03-01T09:58:08.455Z,8.70
2019-03-01T10:00:38.849Z,8.70
2019-03-01T10:03:07.955Z,8.70
2019-03-01T10:05:37.044Z,8.70
2019-03-01T10:08:07.661Z,8.70
2019-03-01T10:10:36.902Z,8.80
2019-03-01T10:13:05.985Z,8.70
2019-03-01T10:15:35.083Z,8.70
2019-03-01T10:18:04.166Z,8.70
2019-03-01T10:20:33.272Z,8.70
2019-03-01T10:23:02.350Z,8.70
2019-03-01T10:25:31.445Z,8.70
2019-03-01T10:28:00.467Z,8.70
2019-03-01T10:30:29.582Z,8.80
2019-03-01T10:32:58.664Z,8.80
2019-03-01T10:35:27.765Z,8.80
2019-03-01T10:37:56.891Z,8.90
2019-03-01T10:40:26.701Z,8.90
2019-03-01T10:42:55.773Z,8.90
2019-03-01T10:45:29.680Z,8.90
2019-03-01T10:47:58.798Z,9.00
2019-03-01T10:50:27.900Z,9.00
2019-03-01T10:52:56.974Z,9.00
2019-03-01T10:55:26.059Z,9.00
2019-03-01T10:57:55.147Z,9.00
2019-03-01T11:00:25.591Z,9.00
2019-03-01T11:02:54.808Z,9.00
2019-03-01T11:05:24.083Z,9.00
2019-03-01T11:07:53.327Z,8.90
2019-03-01T11:10:27.963Z,8.90
2019-03-01T11:12:57.044Z,8.90
2019-03-01T11:15:26.218Z,8.90
2019-03-01T11:17:55.360Z,8.90
2019-03-01T11:20:24.631Z,8.90
2019-03-01T11:22:53.743Z,8.90
2019-03-01T11:25:23.200Z,8.90
2019-03-01T11:27:52.358Z,8.80
2019-03-01T11:30:23.358Z,8.80
2019-03-01T11:32:52.483Z,8.80
2019-03-01T11:35:21.565Z,8.80
2019-03-01T11:37:50.704Z,8.80
2019-03-01T11:40:25.268Z,8.80
2019-03-01T11:42:54.368Z,8.80
2019-03-01T11:45:23.451Z,8.70
2019-03-01T11:47:52.682Z,8.70
2019-03-01T11:50:22.333Z,8.60
2019-03-01T11:52:51.434Z,8.70
2019-03-01T11:55:20.634Z,8.60
2019-03-01T11:57:49.742Z,8.70
2019-03-01T12:00:20.295Z,8.70
2019-03-01T12:02:50.305Z,8.70
2019-03-01T12:05:19.576Z,8.70
2019-03-01T12:07:48.865Z,8.70
2019-03-01T12:10:20.409Z,8.80
2019-03-01T12:12:49.602Z,8.80
2019-03-01T12:15:19.383Z,8.80
2019-03-01T12:17:48.590Z,8.70
2019-03-01T12:20:19.195Z,8.80
2019-03-01T12:22:48.876Z,8.90
2019-03-01T12:25:18.507Z,8.90
2019-03-01T12:27:47.761Z,8.90
2019-03-01T12:30:18.742Z,9.00
2019-03-01T12:32:48.239Z,8.80
2019-03-01T12:35:17.356Z,8.80
2019-03-01T12:37:46.451Z,8.80
2019-03-01T12:40:18.004Z,8.70
2019-03-01T12:42:47.093Z,8.70
2019-03-01T12:45:16.213Z,8.60
2019-03-01T12:47:45.494Z,8.70
2019-03-01T12:50:15.003Z,8.60
2019-03-01T12:52:44.141Z,8.60
2019-03-01T12:55:15.464Z,8.60
2019-03-01T12:57:44.652Z,8.70
2019-03-01T13:00:24.806Z,8.70
2019-03-01T13:02:53.870Z,8.60
2019-03-01T13:05:25.515Z,8.50
2019-03-01T13:07:54.555Z,8.50
2019-03-01T13:10:25.610Z,8.60
2019-03-01T13:12:54.789Z,8.70
2019-03-01T13:15:23.901Z,8.70
2019-03-01T13:17:53.098Z,8.70
2019-03-01T13:20:22.219Z,8.70
2019-03-01T13:22:51.337Z,8.60
2019-03-01T13:25:20.466Z,8.70
2019-03-01T13:27:52.606Z,8.70
2019-03-01T13:30:21.261Z,8.80
2019-03-01T13:32:50.320Z,8.80
2019-03-01T13:35:22.219Z,8.80
2019-03-01T13:37:52.036Z,8.90
2019-03-01T13:40:24.392Z,8.80
2019-03-01T13:42:52.190Z,8.90
2019-03-01T13:45:21.425Z,8.70
2019-03-01T13:47:50.558Z,8.70
2019-03-01T13:50:19.739Z,8.70
2019-03-01T13:52:50.161Z,8.70
2019-03-01T13:55:22.464Z,8.60
2019-03-01T13:57:51.354Z,8.70
2019-03-01T14:00:20.935Z,8.60
2019-03-01T14:02:50.252Z,8.50
2019-03-01T14:05:19.529Z,8.50
2019-03-01T14:07:48.794Z,8.50
2019-03-01T14:10:20.028Z,8.50
2019-03-01T14:12:49.148Z,8.50
2019-03-01T14:15:18.372Z,8.50
2019-03-01T14:17:47.501Z,8.50
2019-03-01T14:20:20.403Z,8.50
2019-03-01T14:22:49.184Z,8.40
2019-03-01T14:25:18.704Z,8.50
2019-03-01T14:27:47.966Z,8.50
2019-03-01T14:30:18.683Z,8.50
2019-03-01T14:32:47.901Z,8.60
2019-03-01T14:35:20.485Z,8.50
2019-03-01T14:37:54.006Z,8.50
2019-03-01T14:40:22.389Z,8.50
2019-03-01T14:42:49.978Z,8.60
2019-03-01T14:45:25.328Z,8.50
2019-03-01T14:47:54.057Z,8.50
2019-03-01T14:50:23.886Z,8.70
2019-03-01T14:52:56.629Z,8.70
2019-03-01T14:55:32.757Z,8.60
2019-03-01T14:58:11.870Z,8.50
2019-03-01T15:00:51.236Z,8.50
2019-03-01T15:03:32.633Z,8.40
2019-03-01T15:06:01.754Z,8.40
2019-03-01T15:08:31.090Z,8.40
2019-03-01T15:11:04.295Z,8.30
2019-03-01T15:13:34.676Z,8.30
2019-03-01T15:16:05.783Z,8.30
2019-03-01T15:18:35.486Z,8.20
2019-03-01T15:21:05.042Z,8.20
2019-03-01T15:23:34.190Z,8.20
2019-03-01T15:26:03.546Z,8.10
2019-03-01T15:28:32.695Z,8.20
2019-03-01T15:31:01.916Z,8.20
2019-03-01T15:33:31.079Z,8.10
2019-03-01T15:36:00.119Z,8.00
2019-03-01T15:38:29.255Z,8.00
2019-03-01T15:40:58.416Z,8.00
2019-03-01T15:43:29.871Z,8.00
2019-03-01T15:45:58.719Z,8.00
2019-03-01T15:48:27.845Z,7.90
2019-03-01T15:50:59.016Z,7.90
2019-03-01T15:53:27.721Z,7.90
2019-03-01T15:55:56.887Z,7.90
2019-03-01T15:58:29.185Z,8.00
2019-03-01T16:00:56.920Z,7.90
2019-03-01T16:03:25.984Z,7.90
2019-03-01T16:05:55.187Z,7.90
2019-03-01T16:08:24.285Z,7.90
2019-03-01T16:10:53.390Z,7.90
2019-03-01T16:13:22.472Z,7.90
2019-03-01T16:15:51.548Z,7.90
2019-03-01T16:18:20.598Z,8.00
2019-03-01T16:20:49.707Z,7.90
2019-03-01T16:23:18.782Z,7.90
2019-03-01T16:25:47.887Z,7.90
2019-03-01T16:28:16.999Z,8.00
2019-03-01T16:30:46.211Z,7.90
2019-03-01T16:33:15.310Z,7.90
2019-03-01T16:35:44.434Z,7.80
2019-03-01T16:38:13.523Z,7.80
2019-03-01T16:40:42.638Z,7.80
2019-03-01T16:43:11.735Z,7.80
2019-03-01T16:45:40.945Z,7.80
2019-03-01T16:48:10.098Z,7.80
2019-03-01T16:50:40.739Z,7.80
2019-03-01T16:53:10.003Z,7.70
2019-03-01T16:55:39.115Z,7.70
2019-03-01T16:58:08.128Z,7.70
2019-03-01T17:00:37.417Z,7.70
2019-03-01T17:03:06.932Z,7.70
2019-03-01T17:05:38.832Z,7.70
2019-03-01T17:08:06.907Z,7.70
2019-03-01T17:10:36.051Z,7.80
2019-03-01T17:13:05.169Z,7.70
2019-03-01T17:15:34.283Z,7.70
2019-03-01T17:18:03.394Z,7.70
2019-03-01T17:20:37.455Z,7.70
2019-03-01T17:23:03.907Z,7.70
2019-03-01T17:25:33.053Z,7.60
2019-03-01T17:28:02.172Z,7.60
2019-03-01T17:30:31.315Z,7.60
2019-03-01T17:33:00.427Z,7.50
2019-03-01T17:35:29.531Z,7.60
2019-03-01T17:37:58.653Z,7.50
2019-03-01T17:40:29.276Z,7.50
2019-03-01T17:42:58.764Z,7.50
2019-03-01T17:45:27.972Z,7.50
2019-03-01T17:47:57.094Z,7.40
2019-03-01T17:50:26.247Z,7.40
2019-03-01T17:52:55.320Z,7.40
2019-03-01T17:55:24.539Z,7.40
2019-03-01T17:57:53.700Z,7.40
2019-03-01T18:00:28.255Z,7.40
2019-03-01T18:02:57.347Z,7.40
2019-03-01T18:05:26.396Z,7.40
2019-03-01T18:07:55.462Z,7.40
2019-03-01T18:10:24.596Z,7.40
2019-03-01T18:12:56.174Z,7.40
2019-03-01T18:15:24.524Z,7.50
2019-03-01T18:17:53.658Z,7.40
2019-03-01T18:20:22.750Z,7.40
2019-03-01T18:22:51.846Z,7.40
2019-03-01T18:25:22.751Z,7.40
2019-03-01T18:27:53.014Z,7.30
2019-03-01T18:30:22.952Z,7.30
2019-03-01T18:32:52.038Z,7.40
2019-03-01T18:35:21.133Z,7.40
2019-03-01T18:37:51.511Z,7.40
2019-03-01T18:40:21.067Z,7.40
2019-03-01T18:42:50.178Z,7.30
2019-03-01T18:45:19.310Z,7.30
2019-03-01T18:47:48.411Z,7.30
2019-03-01T18:50:20.490Z,7.30
2019-03-01T18:52:53.060Z,7.30
2019-03-01T18:55:20.598Z,7.30
2019-03-01T18:57:49.712Z,7.30
2019-03-01T19:00:28.963Z,7.20
2019-03-01T19:03:01.094Z,7.20
2019-03-01T19:05:29.088Z,7.20
2019-03-01T19:08:00.858Z,7.30
2019-03-01T19:10:29.092Z,7.30
2019-03-01T19:12:58.208Z,7.30
2019-03-01T19:15:27.282Z,7.20
2019-03-01T19:17:56.476Z,7.20
2019-03-01T19:20:28.720Z,7.20
2019-03-01T19:22:57.859Z,7.20
2019-03-01T19:25:29.782Z,7.20
2019-03-01T19:27:58.871Z,7.30
2019-03-01T19:30:29.326Z,7.30
2019-03-01T19:32:58.928Z,7.30
2019-03-01T19:35:29.998Z,7.30
2019-03-01T19:37:59.218Z,7.30
2019-03-01T19:40:28.309Z,7.30
2019-03-01T19:42:57.632Z,7.40
2019-03-01T19:45:26.814Z,7.40
2019-03-01T19:48:01.555Z,7.30
2019-03-01T19:50:29.958Z,7.20
2019-03-01T19:52:59.102Z,7.20
2019-03-01T19:55:28.264Z,7.20
2019-03-01T19:57:57.409Z,7.20
2019-03-01T20:00:26.597Z,7.20
2019-03-01T20:02:55.723Z,7.20
2019-03-01T20:05:27.750Z,7.20
2019-03-01T20:07:56.725Z,7.20
2019-03-01T20:10:25.868Z,7.10
2019-03-01T20:12:54.982Z,7.10
2019-03-01T20:15:24.467Z,7.10
2019-03-01T20:17:53.587Z,7.10
2019-03-01T20:20:22.876Z,7.10
2019-03-01T20:22:54.361Z,7.10
2019-03-01T20:25:22.816Z,7.20
2019-03-01T20:27:51.926Z,7.10
2019-03-01T20:30:28.755Z,7.10
2019-03-01T20:32:55.494Z,7.10
2019-03-01T20:35:26.028Z,7.00
2019-03-01T20:37:55.398Z,7.00
2019-03-01T20:40:26.599Z,7.00
2019-03-01T20:42:58.485Z,6.90
2019-03-01T20:45:30.006Z,7.00
2019-03-01T20:47:58.264Z,7.00
2019-03-01T20:50:27.566Z,7.00
2019-03-01T20:52:58.476Z,6.90
2019-03-01T20:55:27.570Z,6.90
2019-03-01T20:57:59.743Z,6.90
2019-03-01T21:00:29.792Z,6.80
2019-03-01T21:02:58.408Z,6.80
2019-03-01T21:05:28.848Z,6.80
2019-03-01T21:07:58.396Z,6.80
2019-03-01T21:10:27.522Z,6.70
2019-03-01T21:12:56.707Z,6.70
2019-03-01T21:15:25.962Z,6.60
2019-03-01T21:17:57.014Z,6.60
2019-03-01T21:20:26.433Z,6.60
2019-03-01T21:22:55.544Z,6.60
2019-03-01T21:25:24.671Z,6.60
2019-03-01T21:27:53.734Z,6.60
2019-03-01T21:30:24.966Z,6.50
2019-03-01T21:32:54.143Z,6.50
2019-03-01T21:35:23.272Z,6.50
2019-03-01T21:37:52.517Z,6.60
2019-03-01T21:40:21.740Z,6.60
2019-03-01T21:42:52.942Z,6.50
2019-03-01T21:45:22.435Z,6.50
2019-03-01T21:47:51.676Z,6.50
2019-03-01T21:50:20.809Z,6.50
2019-03-01T21:52:49.940Z,6.50
2019-03-01T21:55:19.046Z,6.50
2019-03-01T21:57:48.168Z,6.50
2019-03-01T22:00:19.365Z,6.50
2019-03-01T22:02:48.774Z,6.50
2019-03-01T22:05:19.295Z,6.50
2019-03-01T22:07:48.457Z,6.50
2019-03-01T22:10:17.627Z,6.50
2019-03-01T22:12:46.747Z,6.40
2019-03-01T22:15:17.778Z,6.50
2019-03-01T22:17:48.748Z,6.50
2019-03-01T22:20:17.769Z,6.40
2019-03-01T22:22:46.914Z,6.50
2019-03-01T22:25:15.991Z,6.50
2019-03-01T22:27:45.137Z,6.50
2019-03-01T22:30:19.645Z,6.60
2019-03-01T22:32:47.348Z,6.60
2019-03-01T22:35:16.412Z,6.60
2019-03-01T22:37:46.982Z,6.60
2019-03-01T22:40:16.215Z,6.60
2019-03-01T22:42:45.690Z,6.60
2019-03-01T22:45:16.322Z,6.60
2019-03-01T22:47:45.596Z,6.50
2019-03-01T22:50:15.284Z,6.50
2019-03-01T22:52:44.468Z,6.60
2019-03-01T22:55:14.767Z,6.60
2019-03-01T22:57:44.936Z,6.60
2019-03-01T23:01:02.918Z,6.70
2019-03-01T23:03:32.046Z,6.70
2019-03-01T23:06:01.272Z,6.70
2019-03-01T23:08:31.806Z,6.70
2019-03-01T23:11:01.153Z,6.60
2019-03-01T23:13:30.265Z,6.60
2019-03-01T23:15:59.394Z,6.60
2019-03-01T23:18:28.491Z,6.60
2019-03-01T23:21:00.722Z,6.60
2019-03-01T23:23:28.364Z,6.60
2019-03-01T23:25:57.418Z,6.60
2019-03-01T23:28:26.540Z,6.50
2019-03-01T23:30:55.643Z,6.50
2019-03-01T23:33:27.766Z,6.50
2019-03-01T23:35:55.547Z,6.50
2019-03-01T23:38:24.678Z,6.50
2019-03-01T23:40:53.765Z,6.50
2019-03-01T23:43:23.036Z,6.50
2019-03-01T23:45:53.767Z,6.50
2019-03-01T23:48:22.883Z,6.40
2019-03-01T23:50:51.975Z,6.50
2019-03-01T23:53:21.083Z,6.40
2019-03-01T23:55:50.934Z,6.40
2019-03-01T23:58:20.961Z,6.50
